<?xml version="1.0" encoding="UTF-8" standalone="no" ?>
<gpx xmlns="http://www.topografix.com/GPX/1/1" xmlns:xsi="http://www.w3.org/2001/XMLSchema-instance" xsi:schemaLocation="http://www.topografix.com/GPX/1/1 http://www.topografix.com/GPX/1/1/gpx.xsd" version="1.1" creator="VisuGPX - https://www.visugpx.com">
  <metadata>
    <name>Marche comité moyen parcours 2025</name>
  </metadata>
  <trk>
    <name><![CDATA[Marche comité moyen parcours Château de Montepin]]></name>
    <extensions>
      <line xmlns="http://www.topografix.com/GPX/gpx_style/0/2">
        <color>04ff00</color>
        <width>4</width>
      </line>
    </extensions>
    <trkseg>
      <trkpt lat="46.29452" lon="4.91776">
        <ele>214.98</ele>
        <time>2025-04-20T07:58:55.000Z</time>
      </trkpt>
      <trkpt lat="46.29452" lon="4.91776">
        <ele>214.9</ele>
        <time>2025-04-20T07:58:55.000Z</time>
      </trkpt>
      <trkpt lat="46.29432" lon="4.9177">
        <ele>214.76</ele>
        <time>2025-04-20T07:58:55.028Z</time>
      </trkpt>
      <trkpt lat="46.29411" lon="4.91765">
        <ele>214.49</ele>
        <time>2025-04-20T07:58:55.083Z</time>
      </trkpt>
      <trkpt lat="46.29396" lon="4.91767">
        <ele>214.31</ele>
        <time>2025-04-20T07:58:55.158Z</time>
      </trkpt>
      <trkpt lat="46.29377" lon="4.91778">
        <ele>214.17</ele>
        <time>2025-04-20T07:58:55.261Z</time>
      </trkpt>
      <trkpt lat="46.29356" lon="4.91788">
        <ele>214.04</ele>
        <time>2025-04-20T07:58:55.393Z</time>
      </trkpt>
      <trkpt lat="46.29335" lon="4.91799">
        <ele>213.98</ele>
        <time>2025-04-20T07:58:55.555Z</time>
      </trkpt>
      <trkpt lat="46.29315" lon="4.9181">
        <ele>213.9</ele>
        <time>2025-04-20T07:58:55.746Z</time>
      </trkpt>
      <trkpt lat="46.293" lon="4.91821">
        <ele>213.74</ele>
        <time>2025-04-20T07:58:55.960Z</time>
      </trkpt>
      <trkpt lat="46.29275" lon="4.91836">
        <ele>213.67</ele>
        <time>2025-04-20T07:58:56.209Z</time>
      </trkpt>
      <trkpt lat="46.29251" lon="4.91852">
        <ele>213.54</ele>
        <time>2025-04-20T07:58:56.494Z</time>
      </trkpt>
      <trkpt lat="46.29227" lon="4.91868">
        <ele>213.21</ele>
        <time>2025-04-20T07:58:56.814Z</time>
      </trkpt>
      <trkpt lat="46.29204" lon="4.91885">
        <ele>212.83</ele>
        <time>2025-04-20T07:58:57.169Z</time>
      </trkpt>
      <trkpt lat="46.29181" lon="4.91902">
        <ele>212.59</ele>
        <time>2025-04-20T07:58:57.558Z</time>
      </trkpt>
      <trkpt lat="46.29158" lon="4.91919">
        <ele>212.46</ele>
        <time>2025-04-20T07:58:57.981Z</time>
      </trkpt>
      <trkpt lat="46.29156" lon="4.91926">
        <ele>212.3</ele>
        <time>2025-04-20T07:58:58.411Z</time>
      </trkpt>
      <trkpt lat="46.2916" lon="4.91932">
        <ele>212.11</ele>
        <time>2025-04-20T07:58:58.849Z</time>
      </trkpt>
      <trkpt lat="46.29186" lon="4.91947">
        <ele>211.82</ele>
        <time>2025-04-20T07:58:59.324Z</time>
      </trkpt>
      <trkpt lat="46.29211" lon="4.91962">
        <ele>211.6</ele>
        <time>2025-04-20T07:58:59.836Z</time>
      </trkpt>
      <trkpt lat="46.29237" lon="4.91977">
        <ele>211.49</ele>
        <time>2025-04-20T07:59:00.384Z</time>
      </trkpt>
      <trkpt lat="46.29262" lon="4.91991">
        <ele>211.4</ele>
        <time>2025-04-20T07:59:00.969Z</time>
      </trkpt>
      <trkpt lat="46.29287" lon="4.92006">
        <ele>211.35</ele>
        <time>2025-04-20T07:59:01.590Z</time>
      </trkpt>
      <trkpt lat="46.29287" lon="4.92006">
        <ele>211.34</ele>
        <time>2025-04-20T07:59:02.211Z</time>
      </trkpt>
      <trkpt lat="46.29314" lon="4.92022">
        <ele>211.41</ele>
        <time>2025-04-20T07:59:02.871Z</time>
      </trkpt>
      <trkpt lat="46.29341" lon="4.92037">
        <ele>211.5</ele>
        <time>2025-04-20T07:59:03.570Z</time>
      </trkpt>
      <trkpt lat="46.29368" lon="4.92053">
        <ele>211.61</ele>
        <time>2025-04-20T07:59:04.307Z</time>
      </trkpt>
      <trkpt lat="46.29395" lon="4.92069">
        <ele>211.75</ele>
        <time>2025-04-20T07:59:05.083Z</time>
      </trkpt>
      <trkpt lat="46.29422" lon="4.92084">
        <ele>211.8</ele>
        <time>2025-04-20T07:59:05.897Z</time>
      </trkpt>
      <trkpt lat="46.29449" lon="4.921">
        <ele>211.79</ele>
        <time>2025-04-20T07:59:06.750Z</time>
      </trkpt>
      <trkpt lat="46.29476" lon="4.92116">
        <ele>211.82</ele>
        <time>2025-04-20T07:59:07.642Z</time>
      </trkpt>
      <trkpt lat="46.29502" lon="4.92131">
        <ele>211.91</ele>
        <time>2025-04-20T07:59:08.572Z</time>
      </trkpt>
      <trkpt lat="46.29529" lon="4.92147">
        <ele>211.89</ele>
        <time>2025-04-20T07:59:09.541Z</time>
      </trkpt>
      <trkpt lat="46.29525" lon="4.92173">
        <ele>211.96</ele>
        <time>2025-04-20T07:59:10.535Z</time>
      </trkpt>
      <trkpt lat="46.29521" lon="4.92198">
        <ele>212.02</ele>
        <time>2025-04-20T07:59:11.553Z</time>
      </trkpt>
      <trkpt lat="46.29523" lon="4.92238">
        <ele>212.07</ele>
        <time>2025-04-20T07:59:12.608Z</time>
      </trkpt>
      <trkpt lat="46.29525" lon="4.92277">
        <ele>212.13</ele>
        <time>2025-04-20T07:59:13.699Z</time>
      </trkpt>
      <trkpt lat="46.29527" lon="4.92316">
        <ele>212.24</ele>
        <time>2025-04-20T07:59:14.827Z</time>
      </trkpt>
      <trkpt lat="46.29534" lon="4.92346">
        <ele>212.36</ele>
        <time>2025-04-20T07:59:15.983Z</time>
      </trkpt>
      <trkpt lat="46.29541" lon="4.92375">
        <ele>212.39</ele>
        <time>2025-04-20T07:59:17.168Z</time>
      </trkpt>
      <trkpt lat="46.29549" lon="4.92404">
        <ele>212.34</ele>
        <time>2025-04-20T07:59:18.382Z</time>
      </trkpt>
      <trkpt lat="46.29558" lon="4.92437">
        <ele>212.17</ele>
        <time>2025-04-20T07:59:19.628Z</time>
      </trkpt>
      <trkpt lat="46.29567" lon="4.9247">
        <ele>212.05</ele>
        <time>2025-04-20T07:59:20.907Z</time>
      </trkpt>
      <trkpt lat="46.29576" lon="4.92503">
        <ele>211.97</ele>
        <time>2025-04-20T07:59:22.219Z</time>
      </trkpt>
      <trkpt lat="46.29585" lon="4.92535">
        <ele>211.83</ele>
        <time>2025-04-20T07:59:23.563Z</time>
      </trkpt>
      <trkpt lat="46.29587" lon="4.92559">
        <ele>211.7</ele>
        <time>2025-04-20T07:59:24.929Z</time>
      </trkpt>
      <trkpt lat="46.29598" lon="4.92563">
        <ele>211.5</ele>
        <time>2025-04-20T07:59:26.310Z</time>
      </trkpt>
      <trkpt lat="46.29611" lon="4.92582">
        <ele>211.24</ele>
        <time>2025-04-20T07:59:27.716Z</time>
      </trkpt>
      <trkpt lat="46.29627" lon="4.92616">
        <ele>210.87</ele>
        <time>2025-04-20T07:59:29.159Z</time>
      </trkpt>
      <trkpt lat="46.29643" lon="4.92649">
        <ele>210.43</ele>
        <time>2025-04-20T07:59:30.640Z</time>
      </trkpt>
      <trkpt lat="46.29649" lon="4.9267">
        <ele>210.07</ele>
        <time>2025-04-20T07:59:32.142Z</time>
      </trkpt>
      <trkpt lat="46.29652" lon="4.92698">
        <ele>209.67</ele>
        <time>2025-04-20T07:59:33.670Z</time>
      </trkpt>
      <trkpt lat="46.29652" lon="4.92698">
        <ele>209.35</ele>
        <time>2025-04-20T07:59:35.198Z</time>
      </trkpt>
      <trkpt lat="46.29654" lon="4.92715">
        <ele>209.03</ele>
        <time>2025-04-20T07:59:36.743Z</time>
      </trkpt>
      <trkpt lat="46.29662" lon="4.92741">
        <ele>208.73</ele>
        <time>2025-04-20T07:59:38.314Z</time>
      </trkpt>
      <trkpt lat="46.29671" lon="4.92752">
        <ele>208.46</ele>
        <time>2025-04-20T07:59:39.900Z</time>
      </trkpt>
      <trkpt lat="46.29699" lon="4.92771">
        <ele>208.18</ele>
        <time>2025-04-20T07:59:41.527Z</time>
      </trkpt>
      <trkpt lat="46.29695" lon="4.92805">
        <ele>207.93</ele>
        <time>2025-04-20T07:59:43.186Z</time>
      </trkpt>
      <trkpt lat="46.29691" lon="4.92839">
        <ele>207.7</ele>
        <time>2025-04-20T07:59:44.877Z</time>
      </trkpt>
      <trkpt lat="46.29688" lon="4.92873">
        <ele>207.41</ele>
        <time>2025-04-20T07:59:46.600Z</time>
      </trkpt>
      <trkpt lat="46.29684" lon="4.92906">
        <ele>207.22</ele>
        <time>2025-04-20T07:59:48.354Z</time>
      </trkpt>
      <trkpt lat="46.29681" lon="4.92929">
        <ele>207.04</ele>
        <time>2025-04-20T07:59:50.129Z</time>
      </trkpt>
      <trkpt lat="46.29677" lon="4.92951">
        <ele>206.87</ele>
        <time>2025-04-20T07:59:51.926Z</time>
      </trkpt>
      <trkpt lat="46.29664" lon="4.92951">
        <ele>206.68</ele>
        <time>2025-04-20T07:59:53.740Z</time>
      </trkpt>
      <trkpt lat="46.29637" lon="4.92966">
        <ele>206.51</ele>
        <time>2025-04-20T07:59:55.593Z</time>
      </trkpt>
      <trkpt lat="46.29611" lon="4.9299">
        <ele>206.32</ele>
        <time>2025-04-20T07:59:57.487Z</time>
      </trkpt>
      <trkpt lat="46.29583" lon="4.93003">
        <ele>206.27</ele>
        <time>2025-04-20T07:59:59.420Z</time>
      </trkpt>
      <trkpt lat="46.29554" lon="4.93011">
        <ele>206.23</ele>
        <time>2025-04-20T08:00:01.392Z</time>
      </trkpt>
      <trkpt lat="46.29526" lon="4.93019">
        <ele>206.11</ele>
        <time>2025-04-20T08:00:03.403Z</time>
      </trkpt>
      <trkpt lat="46.29497" lon="4.93027">
        <ele>206.02</ele>
        <time>2025-04-20T08:00:05.453Z</time>
      </trkpt>
      <trkpt lat="46.29482" lon="4.93027">
        <ele>205.95</ele>
        <time>2025-04-20T08:00:07.523Z</time>
      </trkpt>
      <trkpt lat="46.29466" lon="4.93022">
        <ele>205.88</ele>
        <time>2025-04-20T08:00:09.615Z</time>
      </trkpt>
      <trkpt lat="46.2945" lon="4.93018">
        <ele>205.66</ele>
        <time>2025-04-20T08:00:11.728Z</time>
      </trkpt>
      <trkpt lat="46.29426" lon="4.93022">
        <ele>205.34</ele>
        <time>2025-04-20T08:00:13.873Z</time>
      </trkpt>
      <trkpt lat="46.29398" lon="4.93042">
        <ele>204.95</ele>
        <time>2025-04-20T08:00:16.059Z</time>
      </trkpt>
      <trkpt lat="46.2938" lon="4.93059">
        <ele>204.64</ele>
        <time>2025-04-20T08:00:18.275Z</time>
      </trkpt>
      <trkpt lat="46.29361" lon="4.93076">
        <ele>204.37</ele>
        <time>2025-04-20T08:00:20.520Z</time>
      </trkpt>
      <trkpt lat="46.29343" lon="4.93093">
        <ele>204.19</ele>
        <time>2025-04-20T08:00:22.795Z</time>
      </trkpt>
      <trkpt lat="46.29325" lon="4.93122">
        <ele>203.99</ele>
        <time>2025-04-20T08:00:25.105Z</time>
      </trkpt>
      <trkpt lat="46.29325" lon="4.93122">
        <ele>203.88</ele>
        <time>2025-04-20T08:00:27.415Z</time>
      </trkpt>
      <trkpt lat="46.29325" lon="4.93122">
        <ele>203.81</ele>
        <time>2025-04-20T08:00:29.725Z</time>
      </trkpt>
      <trkpt lat="46.29311" lon="4.93145">
        <ele>203.65</ele>
        <time>2025-04-20T08:00:32.064Z</time>
      </trkpt>
      <trkpt lat="46.29297" lon="4.93169">
        <ele>203.61</ele>
        <time>2025-04-20T08:00:34.432Z</time>
      </trkpt>
      <trkpt lat="46.29283" lon="4.93192">
        <ele>203.72</ele>
        <time>2025-04-20T08:00:36.828Z</time>
      </trkpt>
      <trkpt lat="46.29264" lon="4.9322">
        <ele>203.98</ele>
        <time>2025-04-20T08:00:39.261Z</time>
      </trkpt>
      <trkpt lat="46.29245" lon="4.93248">
        <ele>204.32</ele>
        <time>2025-04-20T08:00:41.730Z</time>
      </trkpt>
      <trkpt lat="46.29226" lon="4.93277">
        <ele>204.51</ele>
        <time>2025-04-20T08:00:44.236Z</time>
      </trkpt>
      <trkpt lat="46.29207" lon="4.93305">
        <ele>204.7</ele>
        <time>2025-04-20T08:00:46.778Z</time>
      </trkpt>
      <trkpt lat="46.29188" lon="4.93333">
        <ele>204.86</ele>
        <time>2025-04-20T08:00:49.356Z</time>
      </trkpt>
      <trkpt lat="46.29188" lon="4.93333">
        <ele>205.02</ele>
        <time>2025-04-20T08:00:51.934Z</time>
      </trkpt>
      <trkpt lat="46.2918" lon="4.93348">
        <ele>205.18</ele>
        <time>2025-04-20T08:00:54.530Z</time>
      </trkpt>
      <trkpt lat="46.29175" lon="4.93376">
        <ele>205.31</ele>
        <time>2025-04-20T08:00:57.153Z</time>
      </trkpt>
      <trkpt lat="46.29171" lon="4.93416">
        <ele>205.48</ele>
        <time>2025-04-20T08:00:59.813Z</time>
      </trkpt>
      <trkpt lat="46.29167" lon="4.93456">
        <ele>205.42</ele>
        <time>2025-04-20T08:01:02.510Z</time>
      </trkpt>
      <trkpt lat="46.29166" lon="4.93489">
        <ele>205.37</ele>
        <time>2025-04-20T08:01:05.238Z</time>
      </trkpt>
      <trkpt lat="46.29165" lon="4.93522">
        <ele>205.19</ele>
        <time>2025-04-20T08:01:07.996Z</time>
      </trkpt>
      <trkpt lat="46.29168" lon="4.93565">
        <ele>205.04</ele>
        <time>2025-04-20T08:01:10.794Z</time>
      </trkpt>
      <trkpt lat="46.29172" lon="4.93607">
        <ele>204.81</ele>
        <time>2025-04-20T08:01:13.631Z</time>
      </trkpt>
      <trkpt lat="46.29175" lon="4.93649">
        <ele>204.5</ele>
        <time>2025-04-20T08:01:16.507Z</time>
      </trkpt>
      <trkpt lat="46.29182" lon="4.93649">
        <ele>204.17</ele>
        <time>2025-04-20T08:01:19.392Z</time>
      </trkpt>
      <trkpt lat="46.29202" lon="4.93639">
        <ele>203.76</ele>
        <time>2025-04-20T08:01:22.306Z</time>
      </trkpt>
      <trkpt lat="46.29222" lon="4.9363">
        <ele>203.37</ele>
        <time>2025-04-20T08:01:25.248Z</time>
      </trkpt>
      <trkpt lat="46.29247" lon="4.93621">
        <ele>202.94</ele>
        <time>2025-04-20T08:01:28.224Z</time>
      </trkpt>
      <trkpt lat="46.29271" lon="4.93612">
        <ele>202.47</ele>
        <time>2025-04-20T08:01:31.233Z</time>
      </trkpt>
      <trkpt lat="46.29271" lon="4.93612">
        <ele>201.94</ele>
        <time>2025-04-20T08:01:34.242Z</time>
      </trkpt>
      <trkpt lat="46.29296" lon="4.93604">
        <ele>201.39</ele>
        <time>2025-04-20T08:01:37.285Z</time>
      </trkpt>
      <trkpt lat="46.2932" lon="4.93595">
        <ele>200.81</ele>
        <time>2025-04-20T08:01:40.361Z</time>
      </trkpt>
      <trkpt lat="46.29345" lon="4.93587">
        <ele>200.14</ele>
        <time>2025-04-20T08:01:43.471Z</time>
      </trkpt>
      <trkpt lat="46.29371" lon="4.93572">
        <ele>199.44</ele>
        <time>2025-04-20T08:01:46.618Z</time>
      </trkpt>
      <trkpt lat="46.29383" lon="4.93597">
        <ele>198.77</ele>
        <time>2025-04-20T08:01:49.794Z</time>
      </trkpt>
      <trkpt lat="46.29396" lon="4.93623">
        <ele>197.96</ele>
        <time>2025-04-20T08:01:53.000Z</time>
      </trkpt>
      <trkpt lat="46.29418" lon="4.93653">
        <ele>197.17</ele>
        <time>2025-04-20T08:01:56.246Z</time>
      </trkpt>
      <trkpt lat="46.29441" lon="4.93683">
        <ele>196.63</ele>
        <time>2025-04-20T08:01:59.533Z</time>
      </trkpt>
      <trkpt lat="46.29463" lon="4.93713">
        <ele>196.25</ele>
        <time>2025-04-20T08:02:02.861Z</time>
      </trkpt>
      <trkpt lat="46.29467" lon="4.9372">
        <ele>195.97</ele>
        <time>2025-04-20T08:02:06.197Z</time>
      </trkpt>
      <trkpt lat="46.29471" lon="4.93728">
        <ele>195.8</ele>
        <time>2025-04-20T08:02:09.543Z</time>
      </trkpt>
      <trkpt lat="46.29483" lon="4.93745">
        <ele>195.76</ele>
        <time>2025-04-20T08:02:12.910Z</time>
      </trkpt>
      <trkpt lat="46.29494" lon="4.93761">
        <ele>195.86</ele>
        <time>2025-04-20T08:02:16.299Z</time>
      </trkpt>
      <trkpt lat="46.29494" lon="4.93761">
        <ele>196.08</ele>
        <time>2025-04-20T08:02:19.688Z</time>
      </trkpt>
      <trkpt lat="46.29506" lon="4.93779">
        <ele>196.44</ele>
        <time>2025-04-20T08:02:23.100Z</time>
      </trkpt>
      <trkpt lat="46.29519" lon="4.93797">
        <ele>196.92</ele>
        <time>2025-04-20T08:02:26.535Z</time>
      </trkpt>
      <trkpt lat="46.29542" lon="4.9382">
        <ele>197.52</ele>
        <time>2025-04-20T08:02:30.008Z</time>
      </trkpt>
      <trkpt lat="46.29563" lon="4.93836">
        <ele>198.18</ele>
        <time>2025-04-20T08:02:33.513Z</time>
      </trkpt>
      <trkpt lat="46.29584" lon="4.93852">
        <ele>198.94</ele>
        <time>2025-04-20T08:02:37.049Z</time>
      </trkpt>
      <trkpt lat="46.29604" lon="4.93868">
        <ele>199.79</ele>
        <time>2025-04-20T08:02:40.616Z</time>
      </trkpt>
      <trkpt lat="46.29617" lon="4.93883">
        <ele>200.66</ele>
        <time>2025-04-20T08:02:44.205Z</time>
      </trkpt>
      <trkpt lat="46.29626" lon="4.93911">
        <ele>201.64</ele>
        <time>2025-04-20T08:02:47.822Z</time>
      </trkpt>
      <trkpt lat="46.29628" lon="4.93932">
        <ele>202.62</ele>
        <time>2025-04-20T08:02:51.459Z</time>
      </trkpt>
      <trkpt lat="46.29624" lon="4.93969">
        <ele>203.64</ele>
        <time>2025-04-20T08:02:55.131Z</time>
      </trkpt>
      <trkpt lat="46.2963" lon="4.93973">
        <ele>204.36</ele>
        <time>2025-04-20T08:02:58.812Z</time>
      </trkpt>
      <trkpt lat="46.29646" lon="4.93966">
        <ele>204.81</ele>
        <time>2025-04-20T08:03:02.515Z</time>
      </trkpt>
      <trkpt lat="46.29662" lon="4.9396">
        <ele>205.11</ele>
        <time>2025-04-20T08:03:06.241Z</time>
      </trkpt>
      <trkpt lat="46.29691" lon="4.9396">
        <ele>205.13</ele>
        <time>2025-04-20T08:03:10.005Z</time>
      </trkpt>
      <trkpt lat="46.2972" lon="4.93959">
        <ele>205.31</ele>
        <time>2025-04-20T08:03:13.808Z</time>
      </trkpt>
      <trkpt lat="46.29749" lon="4.93959">
        <ele>205.55</ele>
        <time>2025-04-20T08:03:17.650Z</time>
      </trkpt>
      <trkpt lat="46.29778" lon="4.93958">
        <ele>205.69</ele>
        <time>2025-04-20T08:03:21.530Z</time>
      </trkpt>
      <trkpt lat="46.29806" lon="4.93958">
        <ele>205.69</ele>
        <time>2025-04-20T08:03:25.447Z</time>
      </trkpt>
      <trkpt lat="46.29831" lon="4.93959">
        <ele>205.58</ele>
        <time>2025-04-20T08:03:29.398Z</time>
      </trkpt>
      <trkpt lat="46.29856" lon="4.93959">
        <ele>205.41</ele>
        <time>2025-04-20T08:03:33.382Z</time>
      </trkpt>
      <trkpt lat="46.29881" lon="4.9396">
        <ele>205.21</ele>
        <time>2025-04-20T08:03:37.400Z</time>
      </trkpt>
      <trkpt lat="46.29897" lon="4.93959">
        <ele>205.06</ele>
        <time>2025-04-20T08:03:41.439Z</time>
      </trkpt>
      <trkpt lat="46.29913" lon="4.93959">
        <ele>204.91</ele>
        <time>2025-04-20T08:03:45.499Z</time>
      </trkpt>
      <trkpt lat="46.2994" lon="4.93958">
        <ele>204.48</ele>
        <time>2025-04-20T08:03:49.596Z</time>
      </trkpt>
      <trkpt lat="46.29968" lon="4.93957">
        <ele>204.19</ele>
        <time>2025-04-20T08:03:53.730Z</time>
      </trkpt>
      <trkpt lat="46.29996" lon="4.93956">
        <ele>203.81</ele>
        <time>2025-04-20T08:03:57.901Z</time>
      </trkpt>
      <trkpt lat="46.30024" lon="4.93955">
        <ele>203.49</ele>
        <time>2025-04-20T08:04:02.109Z</time>
      </trkpt>
      <trkpt lat="46.30052" lon="4.93954">
        <ele>203.14</ele>
        <time>2025-04-20T08:04:06.354Z</time>
      </trkpt>
      <trkpt lat="46.30081" lon="4.93953">
        <ele>202.77</ele>
        <time>2025-04-20T08:04:10.639Z</time>
      </trkpt>
      <trkpt lat="46.30111" lon="4.93952">
        <ele>202.34</ele>
        <time>2025-04-20T08:04:14.963Z</time>
      </trkpt>
      <trkpt lat="46.3014" lon="4.93951">
        <ele>201.94</ele>
        <time>2025-04-20T08:04:19.326Z</time>
      </trkpt>
      <trkpt lat="46.30169" lon="4.9395">
        <ele>201.51</ele>
        <time>2025-04-20T08:04:23.728Z</time>
      </trkpt>
      <trkpt lat="46.30199" lon="4.93949">
        <ele>201.1</ele>
        <time>2025-04-20T08:04:28.169Z</time>
      </trkpt>
      <trkpt lat="46.30209" lon="4.93956">
        <ele>200.66</ele>
        <time>2025-04-20T08:04:32.626Z</time>
      </trkpt>
      <trkpt lat="46.30205" lon="4.93966">
        <ele>200.26</ele>
        <time>2025-04-20T08:04:37.094Z</time>
      </trkpt>
      <trkpt lat="46.30204" lon="4.94004">
        <ele>199.83</ele>
        <time>2025-04-20T08:04:41.597Z</time>
      </trkpt>
      <trkpt lat="46.30204" lon="4.94041">
        <ele>199.53</ele>
        <time>2025-04-20T08:04:46.134Z</time>
      </trkpt>
      <trkpt lat="46.30203" lon="4.94078">
        <ele>199.21</ele>
        <time>2025-04-20T08:04:50.706Z</time>
      </trkpt>
      <trkpt lat="46.30203" lon="4.94093">
        <ele>198.85</ele>
        <time>2025-04-20T08:04:55.291Z</time>
      </trkpt>
      <trkpt lat="46.30207" lon="4.94106">
        <ele>198.47</ele>
        <time>2025-04-20T08:04:59.890Z</time>
      </trkpt>
      <trkpt lat="46.3022" lon="4.94114">
        <ele>198.08</ele>
        <time>2025-04-20T08:05:04.508Z</time>
      </trkpt>
      <trkpt lat="46.30237" lon="4.94118">
        <ele>197.72</ele>
        <time>2025-04-20T08:05:09.149Z</time>
      </trkpt>
      <trkpt lat="46.30255" lon="4.94121">
        <ele>197.36</ele>
        <time>2025-04-20T08:05:13.813Z</time>
      </trkpt>
      <trkpt lat="46.30267" lon="4.94132">
        <ele>197.05</ele>
        <time>2025-04-20T08:05:18.497Z</time>
      </trkpt>
      <trkpt lat="46.30285" lon="4.94151">
        <ele>196.76</ele>
        <time>2025-04-20T08:05:23.210Z</time>
      </trkpt>
      <trkpt lat="46.30302" lon="4.94171">
        <ele>196.54</ele>
        <time>2025-04-20T08:05:27.953Z</time>
      </trkpt>
      <trkpt lat="46.30318" lon="4.94189">
        <ele>196.45</ele>
        <time>2025-04-20T08:05:32.722Z</time>
      </trkpt>
      <trkpt lat="46.30334" lon="4.94207">
        <ele>196.46</ele>
        <time>2025-04-20T08:05:37.518Z</time>
      </trkpt>
      <trkpt lat="46.30351" lon="4.9422">
        <ele>196.55</ele>
        <time>2025-04-20T08:05:42.340Z</time>
      </trkpt>
      <trkpt lat="46.3037" lon="4.94228">
        <ele>196.69</ele>
        <time>2025-04-20T08:05:47.189Z</time>
      </trkpt>
      <trkpt lat="46.3039" lon="4.94237">
        <ele>196.88</ele>
        <time>2025-04-20T08:05:52.065Z</time>
      </trkpt>
      <trkpt lat="46.30383" lon="4.94247">
        <ele>197.13</ele>
        <time>2025-04-20T08:05:56.954Z</time>
      </trkpt>
      <trkpt lat="46.30379" lon="4.94281">
        <ele>197.52</ele>
        <time>2025-04-20T08:06:01.874Z</time>
      </trkpt>
      <trkpt lat="46.30375" lon="4.94314">
        <ele>197.96</ele>
        <time>2025-04-20T08:06:06.826Z</time>
      </trkpt>
      <trkpt lat="46.30375" lon="4.94331">
        <ele>198.29</ele>
        <time>2025-04-20T08:06:11.793Z</time>
      </trkpt>
      <trkpt lat="46.30382" lon="4.94354">
        <ele>198.63</ele>
        <time>2025-04-20T08:06:16.784Z</time>
      </trkpt>
      <trkpt lat="46.3039" lon="4.94376">
        <ele>198.88</ele>
        <time>2025-04-20T08:06:21.798Z</time>
      </trkpt>
      <trkpt lat="46.30398" lon="4.94415">
        <ele>199.04</ele>
        <time>2025-04-20T08:06:26.849Z</time>
      </trkpt>
      <trkpt lat="46.30407" lon="4.94453">
        <ele>199.15</ele>
        <time>2025-04-20T08:06:31.938Z</time>
      </trkpt>
      <trkpt lat="46.30421" lon="4.94472">
        <ele>199.34</ele>
        <time>2025-04-20T08:06:37.052Z</time>
      </trkpt>
      <trkpt lat="46.30435" lon="4.9449">
        <ele>199.56</ele>
        <time>2025-04-20T08:06:42.191Z</time>
      </trkpt>
      <trkpt lat="46.30446" lon="4.94511">
        <ele>199.81</ele>
        <time>2025-04-20T08:06:47.354Z</time>
      </trkpt>
      <trkpt lat="46.30453" lon="4.9455">
        <ele>200.16</ele>
        <time>2025-04-20T08:06:52.555Z</time>
      </trkpt>
      <trkpt lat="46.30461" lon="4.94589">
        <ele>200.42</ele>
        <time>2025-04-20T08:06:57.793Z</time>
      </trkpt>
      <trkpt lat="46.3046" lon="4.94623">
        <ele>200.71</ele>
        <time>2025-04-20T08:07:03.062Z</time>
      </trkpt>
      <trkpt lat="46.3046" lon="4.94658">
        <ele>200.96</ele>
        <time>2025-04-20T08:07:08.363Z</time>
      </trkpt>
      <trkpt lat="46.30459" lon="4.94692">
        <ele>201.1</ele>
        <time>2025-04-20T08:07:13.696Z</time>
      </trkpt>
      <trkpt lat="46.30459" lon="4.94692">
        <ele>201.2</ele>
        <time>2025-04-20T08:07:19.029Z</time>
      </trkpt>
      <trkpt lat="46.30459" lon="4.94732">
        <ele>201.28</ele>
        <time>2025-04-20T08:07:24.399Z</time>
      </trkpt>
      <trkpt lat="46.30458" lon="4.94771">
        <ele>201.27</ele>
        <time>2025-04-20T08:07:29.805Z</time>
      </trkpt>
      <trkpt lat="46.30463" lon="4.94797">
        <ele>201.25</ele>
        <time>2025-04-20T08:07:35.236Z</time>
      </trkpt>
      <trkpt lat="46.30463" lon="4.94797">
        <ele>201.25</ele>
        <time>2025-04-20T08:07:40.667Z</time>
      </trkpt>
      <trkpt lat="46.30475" lon="4.94817">
        <ele>201.2</ele>
        <time>2025-04-20T08:07:46.122Z</time>
      </trkpt>
      <trkpt lat="46.30486" lon="4.94838">
        <ele>201.18</ele>
        <time>2025-04-20T08:07:51.602Z</time>
      </trkpt>
      <trkpt lat="46.30493" lon="4.94861">
        <ele>201.15</ele>
        <time>2025-04-20T08:07:57.105Z</time>
      </trkpt>
      <trkpt lat="46.30493" lon="4.94898">
        <ele>201.04</ele>
        <time>2025-04-20T08:08:02.642Z</time>
      </trkpt>
      <trkpt lat="46.30489" lon="4.94935">
        <ele>200.98</ele>
        <time>2025-04-20T08:08:08.214Z</time>
      </trkpt>
      <trkpt lat="46.30486" lon="4.94972">
        <ele>200.85</ele>
        <time>2025-04-20T08:08:13.821Z</time>
      </trkpt>
      <trkpt lat="46.30482" lon="4.95009">
        <ele>200.8</ele>
        <time>2025-04-20T08:08:19.462Z</time>
      </trkpt>
      <trkpt lat="46.30482" lon="4.95035">
        <ele>200.73</ele>
        <time>2025-04-20T08:08:25.127Z</time>
      </trkpt>
      <trkpt lat="46.30482" lon="4.95061">
        <ele>200.72</ele>
        <time>2025-04-20T08:08:30.816Z</time>
      </trkpt>
      <trkpt lat="46.30479" lon="4.9509">
        <ele>200.77</ele>
        <time>2025-04-20T08:08:36.532Z</time>
      </trkpt>
      <trkpt lat="46.30476" lon="4.95119">
        <ele>200.85</ele>
        <time>2025-04-20T08:08:42.275Z</time>
      </trkpt>
      <trkpt lat="46.30467" lon="4.95162">
        <ele>200.95</ele>
        <time>2025-04-20T08:08:48.059Z</time>
      </trkpt>
      <trkpt lat="46.30458" lon="4.95204">
        <ele>201.02</ele>
        <time>2025-04-20T08:08:53.885Z</time>
      </trkpt>
      <trkpt lat="46.30463" lon="4.95213">
        <ele>200.97</ele>
        <time>2025-04-20T08:08:59.720Z</time>
      </trkpt>
      <trkpt lat="46.30467" lon="4.9522">
        <ele>200.87</ele>
        <time>2025-04-20T08:09:05.564Z</time>
      </trkpt>
      <trkpt lat="46.30497" lon="4.95207">
        <ele>200.72</ele>
        <time>2025-04-20T08:09:11.449Z</time>
      </trkpt>
      <trkpt lat="46.30514" lon="4.95204">
        <ele>200.51</ele>
        <time>2025-04-20T08:09:17.357Z</time>
      </trkpt>
      <trkpt lat="46.30539" lon="4.95213">
        <ele>200.24</ele>
        <time>2025-04-20T08:09:23.299Z</time>
      </trkpt>
      <trkpt lat="46.30564" lon="4.95222">
        <ele>199.93</ele>
        <time>2025-04-20T08:09:29.275Z</time>
      </trkpt>
      <trkpt lat="46.30581" lon="4.95222">
        <ele>199.51</ele>
        <time>2025-04-20T08:09:35.274Z</time>
      </trkpt>
      <trkpt lat="46.30581" lon="4.95222">
        <ele>199.02</ele>
        <time>2025-04-20T08:09:41.273Z</time>
      </trkpt>
      <trkpt lat="46.30588" lon="4.95217">
        <ele>198.42</ele>
        <time>2025-04-20T08:09:47.283Z</time>
      </trkpt>
      <trkpt lat="46.30588" lon="4.95217">
        <ele>197.79</ele>
        <time>2025-04-20T08:09:53.293Z</time>
      </trkpt>
      <trkpt lat="46.30591" lon="4.95215">
        <ele>197.11</ele>
        <time>2025-04-20T08:09:59.308Z</time>
      </trkpt>
      <trkpt lat="46.30616" lon="4.95192">
        <ele>196.26</ele>
        <time>2025-04-20T08:10:05.361Z</time>
      </trkpt>
      <trkpt lat="46.3064" lon="4.95169">
        <ele>195.39</ele>
        <time>2025-04-20T08:10:11.453Z</time>
      </trkpt>
      <trkpt lat="46.30664" lon="4.95147">
        <ele>194.47</ele>
        <time>2025-04-20T08:10:17.584Z</time>
      </trkpt>
      <trkpt lat="46.30673" lon="4.95123">
        <ele>193.71</ele>
        <time>2025-04-20T08:10:23.739Z</time>
      </trkpt>
      <trkpt lat="46.30673" lon="4.95078">
        <ele>193</ele>
        <time>2025-04-20T08:10:29.936Z</time>
      </trkpt>
      <trkpt lat="46.30679" lon="4.95067">
        <ele>192.43</ele>
        <time>2025-04-20T08:10:36.146Z</time>
      </trkpt>
      <trkpt lat="46.30704" lon="4.9506">
        <ele>191.89</ele>
        <time>2025-04-20T08:10:42.389Z</time>
      </trkpt>
      <trkpt lat="46.30728" lon="4.95053">
        <ele>191.43</ele>
        <time>2025-04-20T08:10:48.665Z</time>
      </trkpt>
      <trkpt lat="46.30752" lon="4.95046">
        <ele>191.18</ele>
        <time>2025-04-20T08:10:54.974Z</time>
      </trkpt>
      <trkpt lat="46.30766" lon="4.95023">
        <ele>191.1</ele>
        <time>2025-04-20T08:11:01.311Z</time>
      </trkpt>
      <trkpt lat="46.3078" lon="4.95001">
        <ele>191.18</ele>
        <time>2025-04-20T08:11:07.676Z</time>
      </trkpt>
      <trkpt lat="46.308" lon="4.94981">
        <ele>191.4</ele>
        <time>2025-04-20T08:11:14.073Z</time>
      </trkpt>
      <trkpt lat="46.30812" lon="4.94975">
        <ele>191.77</ele>
        <time>2025-04-20T08:11:20.488Z</time>
      </trkpt>
      <trkpt lat="46.3084" lon="4.94968">
        <ele>192.29</ele>
        <time>2025-04-20T08:11:26.941Z</time>
      </trkpt>
      <trkpt lat="46.30868" lon="4.94962">
        <ele>192.94</ele>
        <time>2025-04-20T08:11:33.431Z</time>
      </trkpt>
      <trkpt lat="46.30896" lon="4.94956">
        <ele>193.77</ele>
        <time>2025-04-20T08:11:39.959Z</time>
      </trkpt>
      <trkpt lat="46.30924" lon="4.94949">
        <ele>194.7</ele>
        <time>2025-04-20T08:11:46.524Z</time>
      </trkpt>
      <trkpt lat="46.30952" lon="4.94943">
        <ele>195.68</ele>
        <time>2025-04-20T08:11:53.127Z</time>
      </trkpt>
      <trkpt lat="46.30963" lon="4.94923">
        <ele>196.55</ele>
        <time>2025-04-20T08:11:59.753Z</time>
      </trkpt>
      <trkpt lat="46.30965" lon="4.94908">
        <ele>197.35</ele>
        <time>2025-04-20T08:12:06.393Z</time>
      </trkpt>
      <trkpt lat="46.30963" lon="4.94876">
        <ele>198.05</ele>
        <time>2025-04-20T08:12:13.063Z</time>
      </trkpt>
      <trkpt lat="46.30961" lon="4.94844">
        <ele>198.75</ele>
        <time>2025-04-20T08:12:19.763Z</time>
      </trkpt>
      <trkpt lat="46.30959" lon="4.94811">
        <ele>199.32</ele>
        <time>2025-04-20T08:12:26.493Z</time>
      </trkpt>
      <trkpt lat="46.30959" lon="4.94811">
        <ele>199.8</ele>
        <time>2025-04-20T08:12:33.223Z</time>
      </trkpt>
      <trkpt lat="46.30956" lon="4.94769">
        <ele>200.26</ele>
        <time>2025-04-20T08:12:39.993Z</time>
      </trkpt>
      <trkpt lat="46.30958" lon="4.9473">
        <ele>200.56</ele>
        <time>2025-04-20T08:12:46.799Z</time>
      </trkpt>
      <trkpt lat="46.30963" lon="4.94711">
        <ele>200.78</ele>
        <time>2025-04-20T08:12:53.623Z</time>
      </trkpt>
      <trkpt lat="46.30982" lon="4.94696">
        <ele>201</ele>
        <time>2025-04-20T08:13:00.477Z</time>
      </trkpt>
      <trkpt lat="46.30971" lon="4.94672">
        <ele>200.99</ele>
        <time>2025-04-20T08:13:07.357Z</time>
      </trkpt>
      <trkpt lat="46.30961" lon="4.94649">
        <ele>200.91</ele>
        <time>2025-04-20T08:13:14.263Z</time>
      </trkpt>
      <trkpt lat="46.30954" lon="4.94625">
        <ele>200.78</ele>
        <time>2025-04-20T08:13:21.192Z</time>
      </trkpt>
      <trkpt lat="46.30948" lon="4.94602">
        <ele>200.57</ele>
        <time>2025-04-20T08:13:28.145Z</time>
      </trkpt>
      <trkpt lat="46.30938" lon="4.94563">
        <ele>200.24</ele>
        <time>2025-04-20T08:13:35.135Z</time>
      </trkpt>
      <trkpt lat="46.30929" lon="4.94525">
        <ele>200.05</ele>
        <time>2025-04-20T08:13:42.163Z</time>
      </trkpt>
      <trkpt lat="46.3092" lon="4.94486">
        <ele>199.97</ele>
        <time>2025-04-20T08:13:49.228Z</time>
      </trkpt>
      <trkpt lat="46.3091" lon="4.94448">
        <ele>200.04</ele>
        <time>2025-04-20T08:13:56.331Z</time>
      </trkpt>
      <trkpt lat="46.30901" lon="4.9441">
        <ele>200.11</ele>
        <time>2025-04-20T08:14:03.472Z</time>
      </trkpt>
      <trkpt lat="46.30892" lon="4.94372">
        <ele>200.32</ele>
        <time>2025-04-20T08:14:10.650Z</time>
      </trkpt>
      <trkpt lat="46.30884" lon="4.94335">
        <ele>200.67</ele>
        <time>2025-04-20T08:14:17.864Z</time>
      </trkpt>
      <trkpt lat="46.30876" lon="4.94297">
        <ele>201.1</ele>
        <time>2025-04-20T08:14:25.114Z</time>
      </trkpt>
      <trkpt lat="46.30868" lon="4.9426">
        <ele>201.59</ele>
        <time>2025-04-20T08:14:32.399Z</time>
      </trkpt>
      <trkpt lat="46.30868" lon="4.94228">
        <ele>202.05</ele>
        <time>2025-04-20T08:14:39.714Z</time>
      </trkpt>
      <trkpt lat="46.30869" lon="4.94193">
        <ele>202.37</ele>
        <time>2025-04-20T08:14:47.062Z</time>
      </trkpt>
      <trkpt lat="46.3087" lon="4.94158">
        <ele>202.62</ele>
        <time>2025-04-20T08:14:54.442Z</time>
      </trkpt>
      <trkpt lat="46.3087" lon="4.94123">
        <ele>202.82</ele>
        <time>2025-04-20T08:15:01.854Z</time>
      </trkpt>
      <trkpt lat="46.3086" lon="4.94089">
        <ele>202.89</ele>
        <time>2025-04-20T08:15:09.301Z</time>
      </trkpt>
      <trkpt lat="46.30849" lon="4.94054">
        <ele>202.86</ele>
        <time>2025-04-20T08:15:16.783Z</time>
      </trkpt>
      <trkpt lat="46.30837" lon="4.94022">
        <ele>202.75</ele>
        <time>2025-04-20T08:15:24.299Z</time>
      </trkpt>
      <trkpt lat="46.30825" lon="4.93989">
        <ele>202.59</ele>
        <time>2025-04-20T08:15:31.849Z</time>
      </trkpt>
      <trkpt lat="46.30813" lon="4.93956">
        <ele>202.48</ele>
        <time>2025-04-20T08:15:39.434Z</time>
      </trkpt>
      <trkpt lat="46.30802" lon="4.93923">
        <ele>202.35</ele>
        <time>2025-04-20T08:15:47.052Z</time>
      </trkpt>
      <trkpt lat="46.30774" lon="4.93903">
        <ele>202</ele>
        <time>2025-04-20T08:15:54.712Z</time>
      </trkpt>
      <trkpt lat="46.30746" lon="4.93883">
        <ele>201.65</ele>
        <time>2025-04-20T08:16:02.413Z</time>
      </trkpt>
      <trkpt lat="46.30746" lon="4.93883">
        <ele>201.44</ele>
        <time>2025-04-20T08:16:10.114Z</time>
      </trkpt>
      <trkpt lat="46.30726" lon="4.93868">
        <ele>201.17</ele>
        <time>2025-04-20T08:16:17.846Z</time>
      </trkpt>
      <trkpt lat="46.30705" lon="4.93853">
        <ele>200.92</ele>
        <time>2025-04-20T08:16:25.609Z</time>
      </trkpt>
      <trkpt lat="46.30705" lon="4.93815">
        <ele>200.75</ele>
        <time>2025-04-20T08:16:33.407Z</time>
      </trkpt>
      <trkpt lat="46.30705" lon="4.93777">
        <ele>200.7</ele>
        <time>2025-04-20T08:16:41.240Z</time>
      </trkpt>
      <trkpt lat="46.30705" lon="4.93739">
        <ele>200.66</ele>
        <time>2025-04-20T08:16:49.108Z</time>
      </trkpt>
      <trkpt lat="46.30708" lon="4.93708">
        <ele>200.62</ele>
        <time>2025-04-20T08:16:57.005Z</time>
      </trkpt>
      <trkpt lat="46.30712" lon="4.93677">
        <ele>200.58</ele>
        <time>2025-04-20T08:17:04.931Z</time>
      </trkpt>
      <trkpt lat="46.30711" lon="4.93647">
        <ele>200.5</ele>
        <time>2025-04-20T08:17:12.885Z</time>
      </trkpt>
      <trkpt lat="46.30709" lon="4.93617">
        <ele>200.3</ele>
        <time>2025-04-20T08:17:20.867Z</time>
      </trkpt>
      <trkpt lat="46.30705" lon="4.93599">
        <ele>200.08</ele>
        <time>2025-04-20T08:17:28.866Z</time>
      </trkpt>
      <trkpt lat="46.30693" lon="4.9358">
        <ele>199.87</ele>
        <time>2025-04-20T08:17:36.889Z</time>
      </trkpt>
      <trkpt lat="46.30682" lon="4.93561">
        <ele>199.62</ele>
        <time>2025-04-20T08:17:44.935Z</time>
      </trkpt>
      <trkpt lat="46.3066" lon="4.93533">
        <ele>199.28</ele>
        <time>2025-04-20T08:17:53.020Z</time>
      </trkpt>
      <trkpt lat="46.30639" lon="4.93506">
        <ele>198.99</ele>
        <time>2025-04-20T08:18:01.143Z</time>
      </trkpt>
      <trkpt lat="46.30617" lon="4.93479">
        <ele>198.63</ele>
        <time>2025-04-20T08:18:09.304Z</time>
      </trkpt>
      <trkpt lat="46.30596" lon="4.93451">
        <ele>198.36</ele>
        <time>2025-04-20T08:18:17.503Z</time>
      </trkpt>
      <trkpt lat="46.30584" lon="4.93419">
        <ele>198.21</ele>
        <time>2025-04-20T08:18:25.736Z</time>
      </trkpt>
      <trkpt lat="46.30572" lon="4.93387">
        <ele>198.14</ele>
        <time>2025-04-20T08:18:34.002Z</time>
      </trkpt>
      <trkpt lat="46.30572" lon="4.93387">
        <ele>198.26</ele>
        <time>2025-04-20T08:18:42.268Z</time>
      </trkpt>
      <trkpt lat="46.3056" lon="4.93354">
        <ele>198.43</ele>
        <time>2025-04-20T08:18:50.569Z</time>
      </trkpt>
      <trkpt lat="46.30549" lon="4.93321">
        <ele>198.73</ele>
        <time>2025-04-20T08:18:58.905Z</time>
      </trkpt>
      <trkpt lat="46.30549" lon="4.93321">
        <ele>199.12</ele>
        <time>2025-04-20T08:19:07.241Z</time>
      </trkpt>
      <trkpt lat="46.30551" lon="4.93278">
        <ele>199.83</ele>
        <time>2025-04-20T08:19:15.616Z</time>
      </trkpt>
      <trkpt lat="46.30553" lon="4.93252">
        <ele>200.5</ele>
        <time>2025-04-20T08:19:24.015Z</time>
      </trkpt>
      <trkpt lat="46.30561" lon="4.93224">
        <ele>201.16</ele>
        <time>2025-04-20T08:19:32.442Z</time>
      </trkpt>
      <trkpt lat="46.30569" lon="4.93197">
        <ele>201.76</ele>
        <time>2025-04-20T08:19:40.897Z</time>
      </trkpt>
      <trkpt lat="46.30569" lon="4.93197">
        <ele>202.26</ele>
        <time>2025-04-20T08:19:49.352Z</time>
      </trkpt>
      <trkpt lat="46.30569" lon="4.93197">
        <ele>202.7</ele>
        <time>2025-04-20T08:19:57.807Z</time>
      </trkpt>
      <trkpt lat="46.30579" lon="4.93165">
        <ele>203.19</ele>
        <time>2025-04-20T08:20:06.294Z</time>
      </trkpt>
      <trkpt lat="46.30588" lon="4.93133">
        <ele>203.56</ele>
        <time>2025-04-20T08:20:14.813Z</time>
      </trkpt>
      <trkpt lat="46.30598" lon="4.93102">
        <ele>203.83</ele>
        <time>2025-04-20T08:20:23.364Z</time>
      </trkpt>
      <trkpt lat="46.30606" lon="4.93087">
        <ele>203.94</ele>
        <time>2025-04-20T08:20:31.933Z</time>
      </trkpt>
      <trkpt lat="46.30611" lon="4.93082">
        <ele>203.83</ele>
        <time>2025-04-20T08:20:40.509Z</time>
      </trkpt>
      <trkpt lat="46.30589" lon="4.93075">
        <ele>203.48</ele>
        <time>2025-04-20T08:20:49.114Z</time>
      </trkpt>
      <trkpt lat="46.30568" lon="4.93067">
        <ele>202.97</ele>
        <time>2025-04-20T08:20:57.748Z</time>
      </trkpt>
      <trkpt lat="46.30547" lon="4.93065">
        <ele>202.3</ele>
        <time>2025-04-20T08:21:06.410Z</time>
      </trkpt>
      <trkpt lat="46.30527" lon="4.93063">
        <ele>201.57</ele>
        <time>2025-04-20T08:21:15.099Z</time>
      </trkpt>
      <trkpt lat="46.30504" lon="4.93064">
        <ele>200.67</ele>
        <time>2025-04-20T08:21:23.819Z</time>
      </trkpt>
      <trkpt lat="46.30481" lon="4.93066">
        <ele>199.71</ele>
        <time>2025-04-20T08:21:32.569Z</time>
      </trkpt>
      <trkpt lat="46.30458" lon="4.93067">
        <ele>198.7</ele>
        <time>2025-04-20T08:21:41.350Z</time>
      </trkpt>
      <trkpt lat="46.30436" lon="4.93083">
        <ele>197.57</ele>
        <time>2025-04-20T08:21:50.164Z</time>
      </trkpt>
      <trkpt lat="46.30414" lon="4.93099">
        <ele>196.46</ele>
        <time>2025-04-20T08:21:59.011Z</time>
      </trkpt>
      <trkpt lat="46.30392" lon="4.93115">
        <ele>195.3</ele>
        <time>2025-04-20T08:22:07.891Z</time>
      </trkpt>
      <trkpt lat="46.30366" lon="4.93126">
        <ele>194.22</ele>
        <time>2025-04-20T08:22:16.807Z</time>
      </trkpt>
      <trkpt lat="46.3034" lon="4.93138">
        <ele>193.34</ele>
        <time>2025-04-20T08:22:25.759Z</time>
      </trkpt>
      <trkpt lat="46.3033" lon="4.9314">
        <ele>192.62</ele>
        <time>2025-04-20T08:22:34.725Z</time>
      </trkpt>
      <trkpt lat="46.30305" lon="4.93142">
        <ele>191.96</ele>
        <time>2025-04-20T08:22:43.724Z</time>
      </trkpt>
      <trkpt lat="46.30281" lon="4.93145">
        <ele>191.51</ele>
        <time>2025-04-20T08:22:52.755Z</time>
      </trkpt>
      <trkpt lat="46.30257" lon="4.93147">
        <ele>191.26</ele>
        <time>2025-04-20T08:23:01.819Z</time>
      </trkpt>
      <trkpt lat="46.30241" lon="4.93145">
        <ele>191.07</ele>
        <time>2025-04-20T08:23:10.904Z</time>
      </trkpt>
      <trkpt lat="46.30225" lon="4.93142">
        <ele>190.99</ele>
        <time>2025-04-20T08:23:20.011Z</time>
      </trkpt>
      <trkpt lat="46.30197" lon="4.93143">
        <ele>190.96</ele>
        <time>2025-04-20T08:23:29.155Z</time>
      </trkpt>
      <trkpt lat="46.30169" lon="4.93145">
        <ele>190.94</ele>
        <time>2025-04-20T08:23:38.336Z</time>
      </trkpt>
      <trkpt lat="46.30169" lon="4.93145">
        <ele>190.86</ele>
        <time>2025-04-20T08:23:47.517Z</time>
      </trkpt>
      <trkpt lat="46.30162" lon="4.9317">
        <ele>190.82</ele>
        <time>2025-04-20T08:23:56.724Z</time>
      </trkpt>
      <trkpt lat="46.30156" lon="4.93196">
        <ele>190.75</ele>
        <time>2025-04-20T08:24:05.956Z</time>
      </trkpt>
      <trkpt lat="46.30139" lon="4.93234">
        <ele>190.7</ele>
        <time>2025-04-20T08:24:15.229Z</time>
      </trkpt>
      <trkpt lat="46.30121" lon="4.93271">
        <ele>190.54</ele>
        <time>2025-04-20T08:24:24.544Z</time>
      </trkpt>
      <trkpt lat="46.30104" lon="4.93309">
        <ele>190.42</ele>
        <time>2025-04-20T08:24:33.901Z</time>
      </trkpt>
      <trkpt lat="46.30087" lon="4.93346">
        <ele>190.25</ele>
        <time>2025-04-20T08:24:43.299Z</time>
      </trkpt>
      <trkpt lat="46.30075" lon="4.93366">
        <ele>190.21</ele>
        <time>2025-04-20T08:24:52.721Z</time>
      </trkpt>
      <trkpt lat="46.30064" lon="4.93385">
        <ele>190.19</ele>
        <time>2025-04-20T08:25:02.167Z</time>
      </trkpt>
      <trkpt lat="46.30043" lon="4.93405">
        <ele>190.21</ele>
        <time>2025-04-20T08:25:11.646Z</time>
      </trkpt>
      <trkpt lat="46.30022" lon="4.93425">
        <ele>190.33</ele>
        <time>2025-04-20T08:25:21.159Z</time>
      </trkpt>
      <trkpt lat="46.30001" lon="4.93444">
        <ele>190.39</ele>
        <time>2025-04-20T08:25:30.705Z</time>
      </trkpt>
      <trkpt lat="46.2998" lon="4.93464">
        <ele>190.53</ele>
        <time>2025-04-20T08:25:40.284Z</time>
      </trkpt>
      <trkpt lat="46.2996" lon="4.93479">
        <ele>190.77</ele>
        <time>2025-04-20T08:25:49.894Z</time>
      </trkpt>
      <trkpt lat="46.29939" lon="4.93494">
        <ele>191.07</ele>
        <time>2025-04-20T08:25:59.534Z</time>
      </trkpt>
      <trkpt lat="46.29911" lon="4.93513">
        <ele>191.38</ele>
        <time>2025-04-20T08:26:09.215Z</time>
      </trkpt>
      <trkpt lat="46.29883" lon="4.93531">
        <ele>191.65</ele>
        <time>2025-04-20T08:26:18.937Z</time>
      </trkpt>
      <trkpt lat="46.29853" lon="4.93539">
        <ele>191.94</ele>
        <time>2025-04-20T08:26:28.700Z</time>
      </trkpt>
      <trkpt lat="46.29847" lon="4.93546">
        <ele>192.27</ele>
        <time>2025-04-20T08:26:38.473Z</time>
      </trkpt>
      <trkpt lat="46.29834" lon="4.93537">
        <ele>192.63</ele>
        <time>2025-04-20T08:26:48.265Z</time>
      </trkpt>
      <trkpt lat="46.29809" lon="4.93531">
        <ele>193.03</ele>
        <time>2025-04-20T08:26:58.091Z</time>
      </trkpt>
      <trkpt lat="46.29784" lon="4.93525">
        <ele>193.49</ele>
        <time>2025-04-20T08:27:07.951Z</time>
      </trkpt>
      <trkpt lat="46.29758" lon="4.9352">
        <ele>194.05</ele>
        <time>2025-04-20T08:27:17.845Z</time>
      </trkpt>
      <trkpt lat="46.29733" lon="4.93514">
        <ele>194.7</ele>
        <time>2025-04-20T08:27:27.774Z</time>
      </trkpt>
      <trkpt lat="46.29737" lon="4.93473">
        <ele>195.59</ele>
        <time>2025-04-20T08:27:37.740Z</time>
      </trkpt>
      <trkpt lat="46.2974" lon="4.93433">
        <ele>196.49</ele>
        <time>2025-04-20T08:27:47.743Z</time>
      </trkpt>
      <trkpt lat="46.29744" lon="4.93393">
        <ele>197.38</ele>
        <time>2025-04-20T08:27:57.784Z</time>
      </trkpt>
      <trkpt lat="46.29743" lon="4.93348">
        <ele>198.26</ele>
        <time>2025-04-20T08:28:07.866Z</time>
      </trkpt>
      <trkpt lat="46.29742" lon="4.93303">
        <ele>199.23</ele>
        <time>2025-04-20T08:28:17.990Z</time>
      </trkpt>
      <trkpt lat="46.29737" lon="4.93269">
        <ele>200.07</ele>
        <time>2025-04-20T08:28:28.146Z</time>
      </trkpt>
      <trkpt lat="46.2973" lon="4.93231">
        <ele>200.88</ele>
        <time>2025-04-20T08:28:38.339Z</time>
      </trkpt>
      <trkpt lat="46.29722" lon="4.93193">
        <ele>201.75</ele>
        <time>2025-04-20T08:28:48.569Z</time>
      </trkpt>
      <trkpt lat="46.29714" lon="4.93155">
        <ele>202.53</ele>
        <time>2025-04-20T08:28:58.835Z</time>
      </trkpt>
      <trkpt lat="46.29706" lon="4.93117">
        <ele>203.28</ele>
        <time>2025-04-20T08:29:09.138Z</time>
      </trkpt>
      <trkpt lat="46.29698" lon="4.93079">
        <ele>204.08</ele>
        <time>2025-04-20T08:29:19.478Z</time>
      </trkpt>
      <trkpt lat="46.2969" lon="4.93042">
        <ele>204.84</ele>
        <time>2025-04-20T08:29:29.854Z</time>
      </trkpt>
      <trkpt lat="46.29686" lon="4.93011">
        <ele>205.45</ele>
        <time>2025-04-20T08:29:40.258Z</time>
      </trkpt>
      <trkpt lat="46.29682" lon="4.92981">
        <ele>206.02</ele>
        <time>2025-04-20T08:29:50.691Z</time>
      </trkpt>
      <trkpt lat="46.29677" lon="4.92951">
        <ele>206.87</ele>
        <time>2025-04-20T08:30:01.152Z</time>
      </trkpt>
      <trkpt lat="46.29681" lon="4.92929">
        <ele>207.12</ele>
        <time>2025-04-20T08:30:11.634Z</time>
      </trkpt>
      <trkpt lat="46.29684" lon="4.92906">
        <ele>207.22</ele>
        <time>2025-04-20T08:30:22.137Z</time>
      </trkpt>
      <trkpt lat="46.29688" lon="4.92872">
        <ele>207.99</ele>
        <time>2025-04-20T08:30:32.672Z</time>
      </trkpt>
      <trkpt lat="46.29691" lon="4.92839">
        <ele>208.47</ele>
        <time>2025-04-20T08:30:43.239Z</time>
      </trkpt>
      <trkpt lat="46.29695" lon="4.92805">
        <ele>208.83</ele>
        <time>2025-04-20T08:30:53.838Z</time>
      </trkpt>
      <trkpt lat="46.29699" lon="4.92771">
        <ele>208.18</ele>
        <time>2025-04-20T08:31:04.468Z</time>
      </trkpt>
      <trkpt lat="46.29671" lon="4.92752">
        <ele>208.46</ele>
        <time>2025-04-20T08:31:15.139Z</time>
      </trkpt>
      <trkpt lat="46.29662" lon="4.92741">
        <ele>208.73</ele>
        <time>2025-04-20T08:31:25.825Z</time>
      </trkpt>
      <trkpt lat="46.29654" lon="4.92715">
        <ele>209.03</ele>
        <time>2025-04-20T08:31:36.538Z</time>
      </trkpt>
      <trkpt lat="46.29652" lon="4.92693">
        <ele>210.48</ele>
        <time>2025-04-20T08:31:47.272Z</time>
      </trkpt>
      <trkpt lat="46.29649" lon="4.9267">
        <ele>210.07</ele>
        <time>2025-04-20T08:31:58.027Z</time>
      </trkpt>
      <trkpt lat="46.29643" lon="4.92649">
        <ele>210.43</ele>
        <time>2025-04-20T08:32:08.803Z</time>
      </trkpt>
      <trkpt lat="46.29627" lon="4.92616">
        <ele>211.52</ele>
        <time>2025-04-20T08:32:19.617Z</time>
      </trkpt>
      <trkpt lat="46.29611" lon="4.92582">
        <ele>211.24</ele>
        <time>2025-04-20T08:32:30.468Z</time>
      </trkpt>
      <trkpt lat="46.29598" lon="4.92563">
        <ele>211.5</ele>
        <time>2025-04-20T08:32:41.344Z</time>
      </trkpt>
      <trkpt lat="46.29587" lon="4.92559">
        <ele>211.7</ele>
        <time>2025-04-20T08:32:52.235Z</time>
      </trkpt>
      <trkpt lat="46.29585" lon="4.92535">
        <ele>211.83</ele>
        <time>2025-04-20T08:33:03.148Z</time>
      </trkpt>
      <trkpt lat="46.29576" lon="4.92502">
        <ele>212.26</ele>
        <time>2025-04-20T08:33:14.094Z</time>
      </trkpt>
      <trkpt lat="46.29567" lon="4.9247">
        <ele>212.28</ele>
        <time>2025-04-20T08:33:25.072Z</time>
      </trkpt>
      <trkpt lat="46.29558" lon="4.92437">
        <ele>212.33</ele>
        <time>2025-04-20T08:33:36.083Z</time>
      </trkpt>
      <trkpt lat="46.29549" lon="4.92404">
        <ele>212.34</ele>
        <time>2025-04-20T08:33:47.127Z</time>
      </trkpt>
      <trkpt lat="46.29541" lon="4.92375">
        <ele>212.45</ele>
        <time>2025-04-20T08:33:58.199Z</time>
      </trkpt>
      <trkpt lat="46.29534" lon="4.92345">
        <ele>212.36</ele>
        <time>2025-04-20T08:34:09.300Z</time>
      </trkpt>
      <trkpt lat="46.29527" lon="4.92316">
        <ele>212.24</ele>
        <time>2025-04-20T08:34:20.430Z</time>
      </trkpt>
      <trkpt lat="46.29525" lon="4.92277">
        <ele>212.05</ele>
        <time>2025-04-20T08:34:31.596Z</time>
      </trkpt>
      <trkpt lat="46.29523" lon="4.92237">
        <ele>211.97</ele>
        <time>2025-04-20T08:34:42.799Z</time>
      </trkpt>
      <trkpt lat="46.29521" lon="4.92198">
        <ele>212.02</ele>
        <time>2025-04-20T08:34:54.038Z</time>
      </trkpt>
      <trkpt lat="46.29525" lon="4.92172">
        <ele>211.83</ele>
        <time>2025-04-20T08:35:05.302Z</time>
      </trkpt>
      <trkpt lat="46.29529" lon="4.92147">
        <ele>211.89</ele>
        <time>2025-04-20T08:35:16.590Z</time>
      </trkpt>
      <trkpt lat="46.29501" lon="4.9213">
        <ele>211.78</ele>
        <time>2025-04-20T08:35:27.919Z</time>
      </trkpt>
      <trkpt lat="46.29473" lon="4.92114">
        <ele>211.68</ele>
        <time>2025-04-20T08:35:39.289Z</time>
      </trkpt>
      <trkpt lat="46.29444" lon="4.92097">
        <ele>211.69</ele>
        <time>2025-04-20T08:35:50.700Z</time>
      </trkpt>
      <trkpt lat="46.29416" lon="4.92081">
        <ele>211.72</ele>
        <time>2025-04-20T08:36:02.152Z</time>
      </trkpt>
      <trkpt lat="46.29387" lon="4.92064">
        <ele>211.65</ele>
        <time>2025-04-20T08:36:13.644Z</time>
      </trkpt>
      <trkpt lat="46.29359" lon="4.92048">
        <ele>211.53</ele>
        <time>2025-04-20T08:36:25.177Z</time>
      </trkpt>
      <trkpt lat="46.29331" lon="4.92031">
        <ele>211.48</ele>
        <time>2025-04-20T08:36:36.751Z</time>
      </trkpt>
      <trkpt lat="46.29302" lon="4.92015">
        <ele>211.4</ele>
        <time>2025-04-20T08:36:48.366Z</time>
      </trkpt>
      <trkpt lat="46.29274" lon="4.91998">
        <ele>211.43</ele>
        <time>2025-04-20T08:37:00.022Z</time>
      </trkpt>
      <trkpt lat="46.29245" lon="4.91982">
        <ele>211.52</ele>
        <time>2025-04-20T08:37:11.718Z</time>
      </trkpt>
      <trkpt lat="46.29217" lon="4.91965">
        <ele>211.61</ele>
        <time>2025-04-20T08:37:23.455Z</time>
      </trkpt>
      <trkpt lat="46.29189" lon="4.91949">
        <ele>211.83</ele>
        <time>2025-04-20T08:37:35.233Z</time>
      </trkpt>
      <trkpt lat="46.2916" lon="4.91932">
        <ele>212.11</ele>
        <time>2025-04-20T08:37:47.052Z</time>
      </trkpt>
      <trkpt lat="46.29156" lon="4.91926">
        <ele>212.3</ele>
        <time>2025-04-20T08:37:58.879Z</time>
      </trkpt>
      <trkpt lat="46.29158" lon="4.91919">
        <ele>212.46</ele>
        <time>2025-04-20T08:38:10.713Z</time>
      </trkpt>
      <trkpt lat="46.29181" lon="4.91902">
        <ele>212.6</ele>
        <time>2025-04-20T08:38:22.581Z</time>
      </trkpt>
      <trkpt lat="46.29204" lon="4.91885">
        <ele>212.85</ele>
        <time>2025-04-20T08:38:34.484Z</time>
      </trkpt>
      <trkpt lat="46.29227" lon="4.91868">
        <ele>213.21</ele>
        <time>2025-04-20T08:38:46.421Z</time>
      </trkpt>
      <trkpt lat="46.29251" lon="4.91852">
        <ele>213.54</ele>
        <time>2025-04-20T08:38:58.394Z</time>
      </trkpt>
      <trkpt lat="46.29275" lon="4.91836">
        <ele>213.67</ele>
        <time>2025-04-20T08:39:10.402Z</time>
      </trkpt>
      <trkpt lat="46.293" lon="4.91821">
        <ele>213.74</ele>
        <time>2025-04-20T08:39:22.446Z</time>
      </trkpt>
      <trkpt lat="46.29315" lon="4.9181">
        <ele>213.9</ele>
        <time>2025-04-20T08:39:34.512Z</time>
      </trkpt>
      <trkpt lat="46.29335" lon="4.91799">
        <ele>213.98</ele>
        <time>2025-04-20T08:39:46.607Z</time>
      </trkpt>
      <trkpt lat="46.29356" lon="4.91788">
        <ele>214.03</ele>
        <time>2025-04-20T08:39:58.732Z</time>
      </trkpt>
      <trkpt lat="46.29377" lon="4.91778">
        <ele>214.17</ele>
        <time>2025-04-20T08:40:10.886Z</time>
      </trkpt>
      <trkpt lat="46.29396" lon="4.91767">
        <ele>214.31</ele>
        <time>2025-04-20T08:40:23.068Z</time>
      </trkpt>
      <trkpt lat="46.29411" lon="4.91765">
        <ele>214.49</ele>
        <time>2025-04-20T08:40:35.270Z</time>
      </trkpt>
      <trkpt lat="46.29432" lon="4.9177">
        <ele>214.74</ele>
        <time>2025-04-20T08:40:47.500Z</time>
      </trkpt>
      <trkpt lat="46.29452" lon="4.91776">
        <ele>214.9</ele>
        <time>2025-04-20T08:40:59.757Z</time>
      </trkpt>
    </trkseg>
  </trk>
</gpx>